createdAt,value
2019-05-05T00:04:36.630Z,3.30
2019-05-05T00:09:31.059Z,3.20
2019-05-05T00:14:35.416Z,3.20
2019-05-05T00:19:33.089Z,3.10
2019-05-05T00:24:24.980Z,3.20
2019-05-05T00:29:18.794Z,3.20
2019-05-05T00:34:15.415Z,3.10
2019-05-05T00:39:10.525Z,3.20
2019-05-05T00:44:04.890Z,3.10
2019-05-05T00:48:58.855Z,3.20
2019-05-05T00:53:51.898Z,3.20
2019-05-05T00:58:46.193Z,3.20
2019-05-05T01:13:26.328Z,3.20
2019-05-05T01:18:24.451Z,3.40
2019-05-05T01:23:15.944Z,3.40
2019-05-05T01:28:09.916Z,3.40
2019-05-05T01:33:16.008Z,3.40
2019-05-05T01:38:11.395Z,3.50
2019-05-05T01:43:11.280Z,3.50
2019-05-05T01:48:06.667Z,3.40
2019-05-05T01:53:00.812Z,3.30
2019-05-05T01:57:56.315Z,3.30
2019-05-05T02:02:50.214Z,3.40
2019-05-05T02:07:45.027Z,3.40
2019-05-05T02:12:39.216Z,3.40
2019-05-05T02:17:35.247Z,3.40
2019-05-05T02:22:29.551Z,3.50
2019-05-05T02:27:25.262Z,3.60
2019-05-05T02:32:20.621Z,3.50
2019-05-05T02:37:16.027Z,3.50
2019-05-05T02:42:10.317Z,3.50
2019-05-05T02:47:11.489Z,3.50
2019-05-05T02:52:06.228Z,3.50
2019-05-05T02:57:00.143Z,3.60
2019-05-05T03:01:56.501Z,3.60
2019-05-05T03:06:54.313Z,3.50
2019-05-05T03:11:49.555Z,3.50
2019-05-05T03:16:43.768Z,3.50
2019-05-05T03:21:38.996Z,3.50
2019-05-05T03:26:34.076Z,3.40
2019-05-05T03:31:29.007Z,3.40
2019-05-05T03:36:24.525Z,3.30
2019-05-05T03:41:36.099Z,3.30
2019-05-05T03:46:31.452Z,3.30
2019-05-05T03:51:25.766Z,3.40
2019-05-05T03:56:19.858Z,3.40
2019-05-05T04:01:19.209Z,3.40
2019-05-05T04:06:14.657Z,3.60
2019-05-05T04:11:08.807Z,3.70
2019-05-05T04:16:09.054Z,4.00
2019-05-05T04:21:03.994Z,4.30
2019-05-05T04:25:58.229Z,4.60
2019-05-05T04:30:53.658Z,4.80
2019-05-05T04:35:47.440Z,5.10
2019-05-05T04:40:41.179Z,5.40
2019-05-05T04:45:35.168Z,5.70
2019-05-05T04:50:39.579Z,6.40
2019-05-05T04:55:33.788Z,7.40
2019-05-05T05:00:27.805Z,9.40
2019-05-05T05:05:35.424Z,10.50
2019-05-05T05:10:29.216Z,10.40
2019-05-05T05:15:24.213Z,9.70
2019-05-05T05:20:18.398Z,9.40
2019-05-05T05:25:13.591Z,9.00
2019-05-05T05:30:09.528Z,8.60
2019-05-05T05:40:10.109Z,9.50
2019-05-05T05:45:08.111Z,10.50
2019-05-05T05:50:04.152Z,11.90
2019-05-05T05:54:58.123Z,15.10
2019-05-05T05:59:54.745Z,17.20
2019-05-05T06:04:48.232Z,19.50
2019-05-05T06:09:43.784Z,22.10
2019-05-05T06:14:38.723Z,22.80
2019-05-05T06:19:35.879Z,21.80
2019-05-05T06:24:29.698Z,23.10
2019-05-05T06:29:23.894Z,24.50
2019-05-05T06:34:18.199Z,24.10
2019-05-05T06:39:13.668Z,23.10
2019-05-05T06:44:24.815Z,21.60
2019-05-05T06:49:18.627Z,20.50
2019-05-05T06:59:07.040Z,23.70
2019-05-05T07:04:00.847Z,27.70
2019-05-05T07:08:54.740Z,29.40
2019-05-05T07:18:41.781Z,23.60
2019-05-05T07:23:35.624Z,24.40
2019-05-05T07:28:29.531Z,28.30
2019-05-05T07:33:23.875Z,30.70
2019-05-05T07:38:19.764Z,32.50
2019-05-05T07:43:14.603Z,31.30
2019-05-05T07:48:08.574Z,27.40
2019-05-05T07:53:12.235Z,24.40
2019-05-05T07:58:00.100Z,24.30
2019-05-05T08:02:54.492Z,25.40
2019-05-05T08:07:48.447Z,28.40
2019-05-05T08:12:43.653Z,31.90
2019-05-05T08:17:39.276Z,32.60
2019-05-05T08:22:33.983Z,33.00
2019-05-05T08:27:29.671Z,30.70
2019-05-05T08:32:25.361Z,31.60
2019-05-05T08:42:14.272Z,32.70
2019-05-05T08:47:07.811Z,33.20
2019-05-05T08:52:04.639Z,32.10
2019-05-05T09:01:54.061Z,31.80
2019-05-05T09:06:47.117Z,34.30
2019-05-05T09:11:40.947Z,35.70
2019-05-05T09:16:36.695Z,34.40
2019-05-05T09:21:30.192Z,36.00
2019-05-05T09:26:34.836Z,34.10
2019-05-05T09:31:28.842Z,34.40
2019-05-05T09:36:24.309Z,30.80
2019-05-05T09:41:18.195Z,29.80
2019-05-05T09:46:14.479Z,32.70
2019-05-05T09:51:08.502Z,31.10
2019-05-05T09:56:04.240Z,27.90
2019-05-05T10:00:58.171Z,30.90
2019-05-05T10:05:53.641Z,32.30
2019-05-05T10:10:47.419Z,28.80
2019-05-05T10:20:34.784Z,23.40
2019-05-05T10:25:34.318Z,28.50
2019-05-05T10:30:28.538Z,33.50
2019-05-05T10:35:23.725Z,31.80
2019-05-05T10:40:20.324Z,27.60
2019-05-05T10:45:14.637Z,27.60
2019-05-05T10:50:10.335Z,32.30
2019-05-05T10:55:06.096Z,34.10
2019-05-05T11:00:10.079Z,30.50
2019-05-05T11:04:58.265Z,25.80
2019-05-05T11:09:52.727Z,22.50
2019-05-05T11:14:46.627Z,21.70
2019-05-05T11:19:40.698Z,22.50
2019-05-05T11:24:34.684Z,22.10
2019-05-05T11:29:28.539Z,21.80
2019-05-05T11:34:24.684Z,21.50
2019-05-05T11:39:18.739Z,20.70
2019-05-05T11:44:12.443Z,19.60
2019-05-05T11:49:08.091Z,18.70
2019-05-05T11:54:01.828Z,18.10
2019-05-05T12:03:49.326Z,18.30
2019-05-05T12:08:45.750Z,18.80
2019-05-05T12:13:40.343Z,18.30
2019-05-05T12:23:27.108Z,17.70
2019-05-05T12:28:26.253Z,17.80
2019-05-05T12:33:20.261Z,17.70
2019-05-05T12:38:14.051Z,17.80
2019-05-05T12:43:08.441Z,18.00
2019-05-05T12:48:09.659Z,18.10
2019-05-05T12:53:04.834Z,18.40
2019-05-05T12:57:58.918Z,18.80
2019-05-05T13:07:46.446Z,18.60
2019-05-05T13:12:40.137Z,18.00
2019-05-05T13:17:33.999Z,17.60
2019-05-05T13:22:33.798Z,17.10
2019-05-05T13:27:34.177Z,16.50
2019-05-05T13:32:27.619Z,16.00
2019-05-05T13:37:21.644Z,15.60
2019-05-05T13:42:15.501Z,15.60
2019-05-05T13:47:09.547Z,15.70
2019-05-05T13:52:05.403Z,15.90
2019-05-05T13:56:59.116Z,16.20
2019-05-05T14:01:53.978Z,16.60
2019-05-05T14:06:49.770Z,16.90
2019-05-05T14:11:45.946Z,17.50
2019-05-05T14:16:39.959Z,17.70
2019-05-05T14:21:34.054Z,17.60
2019-05-05T14:26:32.105Z,17.00
2019-05-05T14:31:41.909Z,16.50
2019-05-05T14:36:37.322Z,16.00
2019-05-05T14:41:31.529Z,15.70
2019-05-05T14:46:25.280Z,15.50
2019-05-05T14:51:19.464Z,15.30
2019-05-05T14:56:13.546Z,15.20
2019-05-05T15:01:08.109Z,14.80
2019-05-05T15:06:03.994Z,14.80
2019-05-05T15:11:15.892Z,14.70
2019-05-05T15:16:11.407Z,14.60
2019-05-05T15:21:06.131Z,14.60
2019-05-05T15:26:00.089Z,14.60
2019-05-05T15:30:54.534Z,14.80
2019-05-05T15:35:49.720Z,15.30
2019-05-05T15:40:44.685Z,15.60
2019-05-05T15:45:39.547Z,15.60
2019-05-05T15:50:33.734Z,15.30
2019-05-05T15:55:29.253Z,15.00
2019-05-05T16:00:25.659Z,14.60
2019-05-05T16:05:19.644Z,14.50
2019-05-05T16:10:14.245Z,14.40
2019-05-05T16:15:25.120Z,14.50
2019-05-05T16:20:24.373Z,14.40
2019-05-05T16:25:19.165Z,14.60
2019-05-05T16:30:15.116Z,14.40
2019-05-05T16:35:11.980Z,14.20
2019-05-05T16:40:09.867Z,14.00
2019-05-05T16:45:05.087Z,13.80
2019-05-05T16:49:58.847Z,13.60
2019-05-05T16:55:04.611Z,13.50
2019-05-05T16:59:58.639Z,13.50
2019-05-05T17:04:53.865Z,13.50
2019-05-05T17:09:49.456Z,13.40
2019-05-05T17:14:48.372Z,13.40
2019-05-05T17:19:44.385Z,13.40
2019-05-05T17:24:39.301Z,13.30
2019-05-05T17:29:34.469Z,13.20
2019-05-05T17:34:28.472Z,13.10
2019-05-05T17:39:23.794Z,13.00
2019-05-05T17:44:31.433Z,12.80
2019-05-05T17:49:32.961Z,12.60
2019-05-05T17:54:28.432Z,12.30
2019-05-05T17:59:23.710Z,12.10
2019-05-05T18:04:17.715Z,11.90
2019-05-05T18:09:23.529Z,11.60
2019-05-05T18:14:23.937Z,11.30
2019-05-05T18:19:19.682Z,11.00
2019-05-05T18:24:13.874Z,10.70
2019-05-05T18:29:07.836Z,10.50
2019-05-05T18:34:03.801Z,10.30
2019-05-05T18:38:57.423Z,10.10
2019-05-05T18:44:09.241Z,10.00
2019-05-05T18:49:04.987Z,9.90
2019-05-05T18:53:59.057Z,9.80
2019-05-05T18:58:54.240Z,9.70
2019-05-05T19:04:04.059Z,9.60
2019-05-05T19:09:01.806Z,9.50
2019-05-05T19:13:54.836Z,9.40
2019-05-05T19:18:48.636Z,9.20
2019-05-05T19:28:43.932Z,9.00
2019-05-05T19:33:29.903Z,9.00
2019-05-05T19:38:23.861Z,9.00
2019-05-05T19:43:19.218Z,9.00
2019-05-05T19:48:14.935Z,8.70
2019-05-05T19:53:10.197Z,8.60
2019-05-05T20:03:04.623Z,8.30
2019-05-05T20:07:55.365Z,8.20
2019-05-05T20:12:49.392Z,8.10
2019-05-05T20:17:44.450Z,8.10
2019-05-05T20:27:34.222Z,7.90
2019-05-05T20:32:28.971Z,7.80
2019-05-05T20:37:24.696Z,7.70
2019-05-05T20:42:18.653Z,7.70
2019-05-05T20:47:12.735Z,7.60
2019-05-05T20:52:06.500Z,7.40
2019-05-05T20:57:00.405Z,7.20
2019-05-05T21:01:57.140Z,7.00
2019-05-05T21:06:52.395Z,6.80
2019-05-05T21:11:46.131Z,6.60
2019-05-05T21:16:40.164Z,6.40
2019-05-05T21:21:35.635Z,6.30
2019-05-05T21:26:31.350Z,6.00
2019-05-05T21:31:25.216Z,5.90
2019-05-05T21:36:19.803Z,5.90
2019-05-05T21:41:13.930Z,5.80
2019-05-05T21:46:11.536Z,5.70
2019-05-05T21:51:14.260Z,5.70
2019-05-05T21:56:10.831Z,5.60
2019-05-05T22:01:07.480Z,5.50
2019-05-05T22:06:03.720Z,5.40
2019-05-05T22:10:56.907Z,5.40
2019-05-05T22:15:50.676Z,5.30
2019-05-05T22:20:48.967Z,5.40
2019-05-05T22:25:43.759Z,5.30
2019-05-05T22:30:38.195Z,5.40
2019-05-05T22:35:31.951Z,5.30
2019-05-05T22:40:26.935Z,5.30
2019-05-05T22:45:20.999Z,5.30
2019-05-05T22:50:16.396Z,5.20
2019-05-05T22:55:10.668Z,5.00
2019-05-05T23:00:23.855Z,4.90
2019-05-05T23:05:26.443Z,4.80
2019-05-05T23:10:20.381Z,4.70
2019-05-05T23:15:15.344Z,4.60
2019-05-05T23:20:16.288Z,4.50
2019-05-05T23:25:14.547Z,4.40
2019-05-05T23:30:10.175Z,4.30
2019-05-05T23:35:05.714Z,4.20
2019-05-05T23:39:59.459Z,4.00
2019-05-05T23:49:46.517Z,3.90
2019-05-05T23:54:40.271Z,3.90
2019-05-05T23:59:34.031Z,3.80
